Time;durP1;ratioP1;P1;durP2;ratioP2;P2;SDS_P1;SDS_P2;PMS_P1;PMS_P2;Temp;Humidity;BMP_temperature;BMP_pressure;BME280_temperature;BME280_humidity;BME280_pressure;Samples;Min_cycle;Max_cycle;Signal;HPM_P1;HPM_P2
2023/05/28 00:00:19;;;;;;;8.53;5.77;;;15.80;73.50;;;;;;5096926;28;20463;-69
2023/05/28 00:02:46;;;;;;;11.30;5.20;;;15.80;74.70;;;;;;5096515;28;20548;-69
2023/05/28 00:05:13;;;;;;;7.10;5.77;;;15.80;75.60;;;;;;5097159;28;20446;-69
2023/05/28 00:07:41;;;;;;;10.07;5.33;;;15.80;76.90;;;;;;5097252;28;20453;-69
2023/05/28 00:10:10;;;;;;;8.47;4.40;;;15.80;77.80;;;;;;5097027;28;20461;-69
2023/05/28 00:12:37;;;;;;;8.77;5.33;;;15.70;79.20;;;;;;5097099;28;20457;-69
2023/05/28 00:15:05;;;;;;;5.93;5.10;;;15.70;80.00;;;;;;5096775;28;20477;-69
2023/05/28 00:17:32;;;;;;;6.80;5.10;;;15.60;82.60;;;;;;5096789;28;20984;-69
2023/05/28 00:19:59;;;;;;;7.40;4.70;;;15.60;83.20;;;;;;5097295;28;20453;-69
2023/05/28 00:22:26;;;;;;;8.23;5.00;;;15.60;84.30;;;;;;5096801;28;20457;-69
2023/05/28 00:24:53;;;;;;;6.20;4.50;;;15.60;85.40;;;;;;5096942;28;20450;-70
2023/05/28 00:27:21;;;;;;;6.17;4.80;;;15.50;86.60;;;;;;5096638;28;20463;-69
2023/05/28 00:29:48;;;;;;;10.20;5.30;;;15.50;88.00;;;;;;5096393;28;20457;-68
2023/05/28 00:32:14;;;;;;;6.90;4.70;;;15.50;89.30;;;;;;5095874;28;20463;-69
2023/05/28 00:34:41;;;;;;;7.43;5.47;;;15.50;90.30;;;;;;5096364;28;20593;-69
2023/05/28 00:37:08;;;;;;;8.00;5.30;;;15.40;90.90;;;;;;5096016;28;20489;-69
2023/05/28 00:39:35;;;;;;;8.23;5.20;;;15.40;91.60;;;;;;5096035;28;20453;-68
2023/05/28 00:42:03;;;;;;;8.00;5.20;;;15.40;92.30;;;;;;5095421;28;20457;-69
2023/05/28 00:44:32;;;;;;;8.43;5.13;;;15.40;93.10;;;;;;5096153;28;20449;-69
2023/05/28 00:46:59;;;;;;;9.07;4.87;;;15.30;94.00;;;;;;5096999;28;20454;-69
2023/05/28 00:49:26;;;;;;;6.20;5.00;;;15.30;94.70;;;;;;5097021;28;20465;-69
2023/05/28 00:51:54;;;;;;;9.03;5.77;;;15.30;95.60;;;;;;5096589;28;20464;-70
2023/05/28 00:54:22;;;;;;;7.43;4.70;;;15.30;96.20;;;;;;5095885;28;20973;-69
2023/05/28 00:56:49;;;;;;;6.87;4.90;;;15.30;97.20;;;;;;5096701;28;20540;-69
2023/05/28 00:59:16;;;;;;;7.60;5.03;;;15.20;98.10;;;;;;5095375;28;20457;-68
2023/05/28 01:01:44;;;;;;;7.37;5.00;;;15.20;98.90;;;;;;5095629;28;20465;-68
2023/05/28 01:04:11;;;;;;;10.43;5.10;;;15.20;99.70;;;;;;5095804;28;20545;-68
2023/05/28 01:06:39;;;;;;;9.50;5.10;;;15.20;99.90;;;;;;5095567;28;20453;-69
2023/05/28 01:09:07;;;;;;;6.60;5.90;;;15.20;99.90;;;;;;5095426;28;20465;-68
2023/05/28 01:11:36;;;;;;;9.03;5.27;;;15.20;99.90;;;;;;5095286;28;20458;-68
2023/05/28 01:14:05;;;;;;;7.60;5.40;;;15.10;99.90;;;;;;5094908;28;20908;-69
2023/05/28 01:16:32;;;;;;;7.90;5.67;;;15.10;99.90;;;;;;5095278;28;20454;-68
2023/05/28 01:19:01;;;;;;;11.27;6.20;;;15.10;99.90;;;;;;5094972;28;20763;-68
2023/05/28 01:21:30;;;;;;;8.13;5.20;;;15.10;99.90;;;;;;5095046;28;20530;-69
2023/05/28 01:23:59;;;;;;;8.90;5.47;;;15.10;99.90;;;;;;5095049;28;20540;-68
2023/05/28 01:26:27;;;;;;;8.53;5.03;;;15.00;99.90;;;;;;5095345;28;20460;-69
2023/05/28 01:28:54;;;;;;;7.37;5.60;;;15.00;99.90;;;;;;5094972;28;20450;-69
2023/05/28 01:31:21;;;;;;;8.10;5.77;;;15.00;99.90;;;;;;5095049;28;20479;-68
2023/05/28 01:33:48;;;;;;;8.90;5.93;;;14.90;99.90;;;;;;5095098;28;20450;-68
2023/05/28 01:36:19;;;;;;;8.13;5.50;;;14.90;99.90;;;;;;5094280;28;20473;-68
2023/05/28 01:38:48;;;;;;;10.17;5.43;;;14.90;99.90;;;;;;5095189;28;20442;-68
2023/05/28 01:41:17;;;;;;;9.50;5.73;;;14.90;99.90;;;;;;5094621;28;20457;-69
2023/05/28 01:43:46;;;;;;;8.37;6.17;;;14.80;99.90;;;;;;5095065;28;20459;-67
2023/05/28 01:46:13;;;;;;;10.00;6.30;;;14.80;99.90;;;;;;5094800;28;20464;-67
2023/05/28 01:48:41;;;;;;;9.73;5.60;;;14.80;99.90;;;;;;5094510;28;20453;-68
2023/05/28 01:51:07;;;;;;;9.37;6.20;;;14.80;99.90;;;;;;5094674;28;20453;-68
2023/05/28 01:53:34;;;;;;;11.43;7.33;;;14.80;99.90;;;;;;5094118;28;20926;-68
2023/05/28 01:56:01;;;;;;;9.90;5.97;;;14.70;99.90;;;;;;5094217;28;20491;-68
2023/05/28 01:58:30;;;;;;;10.60;6.47;;;14.70;99.90;;;;;;5094377;28;20453;-68
2023/05/28 02:01:10;;;;;;;10.70;6.60;;;14.70;99.90;;;;;;5094352;28;20453;-67
2023/05/28 02:03:37;;;;;;;8.70;5.47;;;14.60;99.90;;;;;;5094738;28;20501;-68
2023/05/28 02:06:04;;;;;;;8.60;6.30;;;14.60;99.90;;;;;;5094666;28;20536;-68
2023/05/28 02:08:31;;;;;;;9.63;6.53;;;14.60;99.90;;;;;;5094666;28;20453;-68
2023/05/28 02:10:58;;;;;;;10.07;6.60;;;14.50;99.90;;;;;;5094602;28;20544;-68
2023/05/28 02:13:27;;;;;;;13.13;7.10;;;14.50;99.90;;;;;;5094305;28;20459;-69
2023/05/28 02:15:55;;;;;;;8.90;6.40;;;14.40;99.90;;;;;;5094576;28;20481;-68
2023/05/28 02:18:22;;;;;;;10.57;6.37;;;14.40;99.90;;;;;;5094488;28;20453;-69
2023/05/28 02:20:49;;;;;;;14.40;7.10;;;14.40;99.90;;;;;;5094133;28;20907;-69
2023/05/28 02:23:16;;;;;;;11.20;7.07;;;14.30;99.90;;;;;;5094544;28;20457;-68
2023/05/28 02:25:43;;;;;;;10.33;6.30;;;14.30;99.90;;;;;;5094164;28;20449;-67
2023/05/28 02:28:10;;;;;;;10.13;5.80;;;14.30;99.90;;;;;;5094447;28;20465;-68
2023/05/28 02:30:37;;;;;;;10.43;6.37;;;14.30;99.90;;;;;;5094634;28;20461;-67
2023/05/28 02:33:05;;;;;;;12.00;7.70;;;14.30;99.90;;;;;;5094104;28;20464;-68
2023/05/28 02:35:32;;;;;;;8.60;6.37;;;14.20;99.90;;;;;;5094011;28;20512;-68
2023/05/28 02:37:59;;;;;;;9.80;6.33;;;14.20;99.90;;;;;;5094308;28;20499;-68
2023/05/28 02:40:26;;;;;;;8.97;5.90;;;14.10;99.90;;;;;;5093786;28;20458;-68
2023/05/28 02:42:52;;;;;;;9.40;6.07;;;14.10;99.90;;;;;;5094064;28;20454;-67
2023/05/28 02:45:19;;;;;;;11.57;6.13;;;14.10;99.90;;;;;;5093979;28;20453;-67
2023/05/28 02:47:46;;;;;;;6.60;5.43;;;14.10;99.90;;;;;;5093846;28;20463;-68
2023/05/28 02:50:14;;;;;;;10.97;6.53;;;14.10;99.90;;;;;;5094176;28;20543;-67
2023/05/28 02:52:41;;;;;;;9.07;6.53;;;14.00;99.90;;;;;;5094187;28;20468;-69
2023/05/28 02:55:08;;;;;;;8.60;6.80;;;14.00;99.90;;;;;;5093768;28;20983;-68
2023/05/28 02:57:35;;;;;;;12.33;9.17;;;14.00;99.90;;;;;;5093892;28;20454;-68
2023/05/28 03:00:02;;;;;;;12.60;9.63;;;14.00;99.90;;;;;;5094060;28;20529;-68
2023/05/28 03:02:29;;;;;;;8.67;6.30;;;14.00;99.90;;;;;;5093904;28;20541;-69
2023/05/28 03:04:56;;;;;;;9.90;5.70;;;13.90;99.90;;;;;;5093681;28;20457;-68
2023/05/28 03:07:25;;;;;;;10.60;5.27;;;13.90;99.90;;;;;;5097455;28;20457;-68
2023/05/28 03:09:51;;;;;;;8.30;6.00;;;13.90;99.90;;;;;;5097802;28;20463;-68
2023/05/28 03:12:18;;;;;;;8.53;4.90;;;13.90;99.90;;;;;;5097861;28;20457;-68
2023/05/28 03:14:45;;;;;;;8.17;5.30;;;13.90;99.90;;;;;;5097630;28;20463;-67
2023/05/28 03:17:12;;;;;;;10.93;6.40;;;13.80;99.90;;;;;;5097652;28;20463;-68
2023/05/28 03:19:39;;;;;;;11.27;5.50;;;13.90;99.90;;;;;;5097600;28;20935;-68
2023/05/28 03:22:05;;;;;;;8.90;5.97;;;13.80;99.90;;;;;;5097197;28;20548;-68
2023/05/28 03:24:34;;;;;;;11.67;5.90;;;13.80;99.90;;;;;;5097573;28;20852;-68
2023/05/28 03:27:02;;;;;;;11.10;6.40;;;13.80;99.90;;;;;;5097031;28;20453;-68
2023/05/28 03:29:29;;;;;;;11.13;7.77;;;13.80;99.90;;;;;;5097344;28;20469;-68
2023/05/28 03:31:56;;;;;;;29.37;21.07;;;13.80;99.90;;;;;;5097216;28;20914;-68
2023/05/28 03:34:23;;;;;;;20.87;13.57;;;13.80;99.90;;;;;;5097184;28;20453;-69
2023/05/28 03:36:50;;;;;;;14.50;9.30;;;13.70;99.90;;;;;;5096789;28;20484;-69
2023/05/28 03:39:17;;;;;;;11.77;8.67;;;13.80;99.90;;;;;;5097229;28;20804;-69
2023/05/28 03:41:45;;;;;;;9.40;6.40;;;13.70;99.90;;;;;;5097260;28;20464;-68
2023/05/28 03:44:12;;;;;;;11.57;6.60;;;13.70;99.90;;;;;;5096824;28;20453;-69
2023/05/28 03:46:40;;;;;;;12.50;7.13;;;13.70;99.90;;;;;;5097192;28;20530;-69
2023/05/28 03:49:07;;;;;;;12.53;7.67;;;13.70;99.90;;;;;;5096760;28;20475;-68
2023/05/28 03:51:34;;;;;;;9.03;7.03;;;13.70;99.90;;;;;;5096785;28;20459;-68
2023/05/28 03:54:01;;;;;;;7.40;6.20;;;13.70;99.90;;;;;;5096531;28;20457;-68
2023/05/28 03:56:27;;;;;;;9.07;6.60;;;13.70;99.90;;;;;;5097253;28;20513;-67
2023/05/28 03:58:56;;;;;;;8.50;7.03;;;13.70;99.90;;;;;;5096806;28;20522;-67
2023/05/28 04:01:23;;;;;;;12.40;8.00;;;13.70;99.90;;;;;;5096473;28;20454;-67
2023/05/28 04:03:49;;;;;;;9.30;6.63;;;13.70;99.90;;;;;;5096481;28;20552;-67
2023/05/28 04:06:16;;;;;;;8.60;7.03;;;13.70;99.90;;;;;;5096682;28;20532;-68
2023/05/28 04:08:43;;;;;;;8.70;6.90;;;13.70;99.90;;;;;;5096884;28;20469;-67
2023/05/28 04:11:10;;;;;;;11.20;7.17;;;13.70;99.90;;;;;;5096478;28;20468;-69
2023/05/28 04:13:37;;;;;;;10.30;6.63;;;13.70;99.90;;;;;;5096795;28;20453;-68
2023/05/28 04:16:07;;;;;;;10.33;8.20;;;13.70;99.90;;;;;;5096333;28;20965;-67
2023/05/28 04:18:34;;;;;;;8.70;6.70;;;13.80;99.90;;;;;;5095909;28;20441;-67
2023/05/28 04:21:01;;;;;;;12.60;7.83;;;13.80;99.90;;;;;;5096329;28;20453;-67
2023/05/28 04:23:28;;;;;;;7.73;5.77;;;13.80;99.90;;;;;;5096394;28;20465;-68
2023/05/28 04:25:56;;;;;;;14.70;8.70;;;13.80;99.90;;;;;;5096381;28;20777;-68
2023/05/28 04:28:24;;;;;;;9.93;6.23;;;13.90;99.90;;;;;;5096410;28;20798;-68
2023/05/28 04:30:51;;;;;;;10.80;6.20;;;13.90;99.90;;;;;;5096209;28;20551;-69
2023/05/28 04:33:20;;;;;;;8.13;6.20;;;13.90;99.90;;;;;;5096239;28;20928;-68
2023/05/28 04:35:47;;;;;;;6.63;5.37;;;13.90;99.90;;;;;;5095699;28;20481;-69
2023/05/28 04:38:14;;;;;;;8.93;5.87;;;13.90;99.90;;;;;;5095540;28;20987;-69
2023/05/28 04:40:41;;;;;;;8.37;6.97;;;14.00;99.90;;;;;;5095974;28;20453;-68
2023/05/28 04:43:08;;;;;;;8.57;5.00;;;14.00;99.90;;;;;;5095826;28;20870;-69
2023/05/28 04:45:35;;;;;;;6.77;5.17;;;14.00;99.90;;;;;;5095577;28;20453;-68
2023/05/28 04:48:02;;;;;;;11.20;6.27;;;14.10;99.90;;;;;;5095753;28;20900;-68
2023/05/28 04:50:31;;;;;;;9.17;6.27;;;14.10;99.90;;;;;;5095612;28;20500;-68
2023/05/28 04:52:57;;;;;;;8.87;5.50;;;14.10;99.90;;;;;;5095571;28;20458;-69
2023/05/28 04:55:24;;;;;;;11.93;6.37;;;14.10;99.90;;;;;;5095516;28;20463;-68
2023/05/28 04:57:51;;;;;;;7.63;5.07;;;14.20;99.90;;;;;;5095592;28;20779;-67
2023/05/28 05:00:18;;;;;;;10.37;4.93;;;14.20;99.90;;;;;;5095670;28;20453;-68
2023/05/28 05:02:45;;;;;;;8.80;5.07;;;14.20;99.90;;;;;;5095350;28;20566;-69
2023/05/28 05:05:12;;;;;;;12.70;5.07;;;14.20;99.90;;;;;;5095417;28;20544;-68
2023/05/28 05:07:41;;;;;;;8.40;4.70;;;14.30;99.90;;;;;;5095418;28;20464;-67
2023/05/28 05:10:09;;;;;;;5.80;4.53;;;14.30;99.90;;;;;;5095729;28;20453;-68
2023/05/28 05:12:36;;;;;;;7.63;5.03;;;14.40;99.90;;;;;;5095623;28;20453;-68
2023/05/28 05:15:03;;;;;;;6.80;4.47;;;14.40;99.90;;;;;;5095504;28;20548;-69
2023/05/28 05:17:30;;;;;;;7.63;4.70;;;14.40;99.90;;;;;;5095001;28;20562;-69
2023/05/28 05:19:57;;;;;;;7.17;5.37;;;14.40;99.90;;;;;;5095356;28;20466;-69
2023/05/28 05:22:24;;;;;;;14.50;8.90;;;14.40;99.90;;;;;;5095299;28;20468;-69
2023/05/28 05:24:52;;;;;;;7.53;5.70;;;14.40;99.90;;;;;;5095287;28;20453;-68
2023/05/28 05:27:19;;;;;;;10.07;5.20;;;14.50;99.90;;;;;;5095233;28;20483;-69
2023/05/28 05:29:46;;;;;;;13.37;4.90;;;14.50;99.90;;;;;;5095206;28;20453;-69
2023/05/28 05:32:13;;;;;;;6.37;4.43;;;14.50;99.90;;;;;;5095206;28;20453;-68
2023/05/28 05:34:40;;;;;;;5.10;4.60;;;14.60;99.90;;;;;;5095063;28;20548;-67
2023/05/28 05:37:07;;;;;;;6.13;4.03;;;14.60;99.90;;;;;;5094865;28;20493;-68
2023/05/28 05:39:34;;;;;;;9.87;4.70;;;14.60;99.90;;;;;;5095083;28;20453;-69
2023/05/28 05:42:02;;;;;;;5.97;4.37;;;14.70;99.90;;;;;;5094811;28;20457;-69
2023/05/28 05:44:29;;;;;;;6.70;4.30;;;14.70;99.90;;;;;;5095049;28;20453;-69
2023/05/28 05:46:56;;;;;;;5.70;4.47;;;14.70;99.90;;;;;;5095047;28;20788;-69
2023/05/28 05:49:23;;;;;;;7.27;4.33;;;14.80;99.90;;;;;;5095111;28;20457;-68
2023/05/28 05:51:49;;;;;;;5.07;3.80;;;14.90;99.90;;;;;;5094893;28;20779;-69
2023/05/28 05:54:16;;;;;;;8.23;4.27;;;14.90;99.90;;;;;;5095077;28;20457;-69
2023/05/28 05:56:43;;;;;;;7.70;4.10;;;14.90;99.90;;;;;;5095192;28;20790;-67
2023/05/28 05:59:11;;;;;;;7.10;3.67;;;15.00;99.90;;;;;;5094900;28;20463;-68
2023/05/28 06:01:38;;;;;;;8.77;4.23;;;15.00;99.90;;;;;;5094693;28;20453;-68
2023/05/28 06:04:05;;;;;;;6.70;4.80;;;15.00;99.90;;;;;;5094559;28;20453;-69
2023/05/28 06:06:32;;;;;;;8.33;3.70;;;15.10;99.90;;;;;;5094785;28;20459;-68
2023/05/28 06:08:59;;;;;;;10.53;4.70;;;15.20;99.90;;;;;;5094415;28;20467;-68
2023/05/28 06:11:26;;;;;;;8.10;3.97;;;15.20;99.90;;;;;;5094570;28;20453;-69
2023/05/28 06:13:53;;;;;;;5.80;3.87;;;15.30;99.90;;;;;;5094594;28;20453;-68
2023/05/28 06:16:22;;;;;;;6.00;3.70;;;15.30;99.90;;;;;;5094540;28;20802;-68
2023/05/28 06:18:49;;;;;;;7.80;3.83;;;15.40;99.90;;;;;;5094478;28;20518;-68
2023/05/28 06:21:16;;;;;;;5.57;3.10;;;15.50;99.90;;;;;;5094302;28;20460;-68
2023/05/28 06:23:43;;;;;;;4.80;3.23;;;15.50;99.90;;;;;;5094499;28;20453;-69
2023/05/28 06:26:10;;;;;;;5.50;4.10;;;15.60;99.90;;;;;;5094325;28;20510;-68
2023/05/28 06:28:37;;;;;;;4.70;3.50;;;15.70;99.90;;;;;;5094408;28;20482;-67
2023/05/28 06:31:04;;;;;;;8.33;3.47;;;15.80;99.90;;;;;;5094569;28;20467;-68
2023/05/28 06:33:32;;;;;;;4.73;3.40;;;15.90;99.90;;;;;;5094544;28;20453;-68
2023/05/28 06:35:59;;;;;;;6.40;3.17;;;16.00;99.90;;;;;;5093952;28;20457;-68
2023/05/28 06:38:26;;;;;;;4.50;3.20;;;16.10;99.90;;;;;;5093945;28;20568;-68
2023/05/28 06:40:53;;;;;;;4.93;3.27;;;16.10;99.90;;;;;;5095940;28;20483;-68
2023/05/28 06:43:20;;;;;;;5.17;3.30;;;16.20;99.90;;;;;;5098452;28;20453;-68
2023/05/28 06:45:46;;;;;;;5.20;3.13;;;16.30;99.90;;;;;;5097964;28;20921;-68
2023/05/28 06:48:13;;;;;;;4.53;3.00;;;16.40;99.90;;;;;;5098226;28;20642;-68
2023/05/28 06:50:41;;;;;;;7.13;3.13;;;16.50;98.70;;;;;;5098181;28;20456;-68
2023/05/28 06:53:09;;;;;;;4.07;2.93;;;16.60;97.90;;;;;;5098330;28;20453;-68
2023/05/28 06:55:35;;;;;;;5.53;2.53;;;16.70;98.30;;;;;;5097887;28;20464;-68
2023/05/28 06:58:02;;;;;;;4.77;2.70;;;16.80;96.60;;;;;;5098162;28;20590;-68
2023/05/28 07:00:29;;;;;;;4.50;3.50;;;16.90;94.30;;;;;;5097886;28;20544;-68
2023/05/28 07:02:56;;;;;;;5.67;4.87;;;16.90;94.60;;;;;;5098152;28;20456;-68
2023/05/28 07:05:23;;;;;;;4.43;3.33;;;17.00;93.30;;;;;;5097876;28;20940;-68
2023/05/28 07:07:51;;;;;;;8.40;3.30;;;17.10;92.10;;;;;;5097375;28;20906;-68
2023/05/28 07:10:18;;;;;;;4.10;2.80;;;17.30;90.10;;;;;;5097645;28;20543;-68
2023/05/28 07:12:45;;;;;;;6.37;2.90;;;17.40;91.00;;;;;;5097831;28;20464;-68
2023/05/28 07:15:12;;;;;;;4.30;2.50;;;17.40;89.00;;;;;;5097688;28;21072;-68
2023/05/28 07:17:39;;;;;;;4.23;2.40;;;17.50;86.40;;;;;;5097439;28;20934;-68
2023/05/28 07:20:07;;;;;;;3.10;2.70;;;17.50;79.20;;;;;;5097549;28;20463;-68
2023/05/28 07:22:33;;;;;;;9.53;2.57;;;17.70;76.10;;;;;;5097449;28;20489;-68
2023/05/28 07:25:02;;;;;;;6.00;2.90;;;17.70;72.90;;;;;;5097685;28;20740;-68
2023/05/28 07:27:29;;;;;;;7.73;2.53;;;17.70;71.10;;;;;;5097015;28;20457;-68
2023/05/28 07:29:57;;;;;;;3.23;2.40;;;17.70;72.60;;;;;;5097624;28;20535;-69
2023/05/28 07:32:24;;;;;;;3.87;2.67;;;17.90;70.40;;;;;;5097046;28;20449;-69
2023/05/28 07:34:51;;;;;;;6.23;2.43;;;17.90;68.50;;;;;;5097432;28;20457;-68
2023/05/28 07:37:17;;;;;;;3.37;2.33;;;18.00;64.70;;;;;;5097015;28;20495;-69
2023/05/28 07:39:45;;;;;;;4.10;2.13;;;17.90;63.90;;;;;;5097397;28;20548;-69
2023/05/28 07:42:14;;;;;;;5.80;2.30;;;18.00;64.10;;;;;;5097404;28;20938;-69
2023/05/28 07:44:41;;;;;;;4.37;2.37;;;18.00;64.40;;;;;;5097340;28;20937;-69
2023/05/28 07:47:07;;;;;;;3.10;2.40;;;18.10;65.60;;;;;;5097262;28;20459;-69
2023/05/28 07:49:34;;;;;;;5.40;2.37;;;18.20;64.30;;;;;;5097071;28;20518;-68
2023/05/28 07:52:01;;;;;;;3.33;2.00;;;18.20;61.80;;;;;;5095710;28;20741;-68
2023/05/28 07:54:28;;;;;;;6.87;3.20;;;18.30;59.80;;;;;;5097216;28;20564;-69
2023/05/28 07:56:55;;;;;;;2.50;2.13;;;18.20;58.20;;;;;;5097230;28;20487;-70
2023/05/28 07:59:23;;;;;;;3.10;2.33;;;18.30;57.40;;;;;;5097120;28;20849;-69
2023/05/28 08:01:50;;;;;;;2.73;1.97;;;18.40;56.10;;;;;;5096694;28;20464;-69
2023/05/28 08:04:16;;;;;;;4.87;2.30;;;18.50;55.30;;;;;;5096725;28;20457;-68
2023/05/28 08:06:43;;;;;;;5.70;2.50;;;18.50;55.20;;;;;;5096893;28;20804;-69
2023/05/28 08:09:10;;;;;;;5.70;2.83;;;18.60;53.20;;;;;;5096300;28;20453;-67
2023/05/28 08:11:37;;;;;;;3.50;1.97;;;18.60;51.60;;;;;;5097072;28;20463;-67
2023/05/28 08:14:04;;;;;;;4.40;2.20;;;18.70;52.80;;;;;;5096517;28;20453;-67
2023/05/28 08:16:32;;;;;;;4.53;2.37;;;18.60;52.80;;;;;;5096347;28;20922;-70
2023/05/28 08:18:59;;;;;;;5.03;2.50;;;18.70;53.30;;;;;;5096044;28;20933;-68
2023/05/28 08:21:26;;;;;;;4.93;2.80;;;18.70;51.70;;;;;;5096417;28;20548;-68
2023/05/28 08:23:55;;;;;;;4.27;2.20;;;18.80;53.90;;;;;;5096539;28;20530;-68
2023/05/28 08:26:21;;;;;;;3.30;1.80;;;18.80;51.70;;;;;;5096615;28;20453;-68
2023/05/28 08:28:48;;;;;;;4.10;2.23;;;18.80;50.10;;;;;;5096532;28;20457;-69
2023/05/28 08:31:15;;;;;;;7.60;2.63;;;18.90;47.40;;;;;;5096074;28;20457;-69
2023/05/28 08:33:43;;;;;;;5.70;2.37;;;18.90;48.60;;;;;;5096389;28;20463;-68
2023/05/28 08:36:11;;;;;;;2.70;2.10;;;18.90;48.70;;;;;;5096475;28;20986;-68
2023/05/28 08:38:38;;;;;;;3.20;2.30;;;18.90;48.80;;;;;;5096195;28;20961;-68
2023/05/28 08:41:07;;;;;;;3.73;1.93;;;19.00;46.70;;;;;;5096680;28;20449;-69
2023/05/28 08:43:34;;;;;;;4.03;2.10;;;19.10;48.90;;;;;;5096176;28;20976;-69
2023/05/28 08:46:01;;;;;;;3.43;2.50;;;19.10;47.70;;;;;;5096229;28;20539;-68
2023/05/28 08:48:31;;;;;;;3.53;2.53;;;19.10;48.10;;;;;;5096114;28;20485;-68
2023/05/28 08:50:59;;;;;;;4.83;2.20;;;19.30;49.40;;;;;;5095736;28;20453;-68
2023/05/28 08:53:30;;;;;;;5.10;2.20;;;19.40;48.00;;;;;;5096406;28;20796;-69
2023/05/28 08:55:58;;;;;;;5.03;2.43;;;19.40;47.40;;;;;;5096014;28;20441;-69
2023/05/28 08:58:25;;;;;;;4.53;2.60;;;19.50;46.60;;;;;;5096003;28;20569;-68
2023/05/28 09:00:52;;;;;;;3.23;2.17;;;19.50;45.50;;;;;;5096041;28;20782;-69
2023/05/28 09:03:19;;;;;;;9.63;2.80;;;19.50;44.90;;;;;;5095535;28;20461;-68
2023/05/28 09:05:46;;;;;;;4.27;2.50;;;19.50;43.70;;;;;;5095696;28;20457;-68
2023/05/28 09:08:14;;;;;;;3.03;2.23;;;19.60;44.70;;;;;;5095780;28;20800;-68
2023/05/28 09:10:41;;;;;;;4.40;2.47;;;19.60;41.60;;;;;;5095048;28;20468;-69
2023/05/28 09:13:09;;;;;;;3.53;2.03;;;19.60;42.00;;;;;;5095232;28;20926;-69
2023/05/28 09:15:36;;;;;;;4.93;2.50;;;19.70;41.60;;;;;;5095583;28;20773;-69
2023/05/28 09:18:04;;;;;;;2.70;2.20;;;19.70;42.20;;;;;;5095507;28;20918;-69
2023/05/28 09:20:31;;;;;;;4.73;2.60;;;19.70;41.30;;;;;;5095169;28;20453;-69
2023/05/28 09:23:00;;;;;;;4.20;2.30;;;19.80;41.30;;;;;;5095505;28;20454;-69
2023/05/28 09:25:31;;;;;;;3.00;2.40;;;19.70;40.00;;;;;;5095488;28;20468;-69
2023/05/28 09:27:59;;;;;;;2.50;2.10;;;19.80;41.00;;;;;;5095558;28;20548;-71
2023/05/28 09:30:26;;;;;;;5.80;4.63;;;19.90;42.70;;;;;;5095138;28;20479;-70
2023/05/28 09:32:58;;;;;;;4.83;2.63;;;20.00;43.60;;;;;;5095016;28;20453;-68
2023/05/28 09:35:29;;;;;;;4.03;2.40;;;20.00;40.50;;;;;;5095140;28;20453;-69
2023/05/28 09:38:03;;;;;;;3.47;1.87;;;20.10;42.20;;;;;;5094812;28;20551;-69
2023/05/28 09:40:32;;;;;;;4.13;2.20;;;20.20;42.20;;;;;;5095373;28;20837;-68
2023/05/28 09:42:59;;;;;;;9.80;2.20;;;20.30;40.50;;;;;;5095415;28;20463;-68
2023/05/28 09:45:28;;;;;;;5.00;2.77;;;20.40;41.30;;;;;;5095055;28;20456;-69
2023/05/28 09:47:55;;;;;;;3.30;3.00;;;20.40;37.40;;;;;;5094819;28;20456;-69
2023/05/28 09:50:21;;;;;;;3.30;2.30;;;20.40;38.60;;;;;;5094859;28;20467;-69
2023/05/28 09:52:48;;;;;;;3.70;2.30;;;20.40;36.10;;;;;;5095073;28;20464;-69
2023/05/28 09:55:18;;;;;;;2.73;1.83;;;20.40;37.30;;;;;;5094914;28;20457;-69
2023/05/28 09:58:00;;;;;;;6.60;4.17;;;20.50;37.80;;;;;;5094992;28;20874;-69
2023/05/28 10:00:33;;;;;;;3.80;2.80;;;20.60;38.20;;;;;;5094919;28;20771;-69
2023/05/28 10:03:13;;;;;;;3.87;2.50;;;20.60;37.60;;;;;;5094694;28;20545;-69
2023/05/28 10:05:43;;;;;;;2.57;2.30;;;20.60;37.00;;;;;;5094783;28;20434;-69
2023/05/28 10:08:14;;;;;;;3.90;1.97;;;20.80;37.10;;;;;;5094951;28;20787;-70
2023/05/28 10:10:43;;;;;;;3.53;2.37;;;20.90;36.80;;;;;;5095052;28;20444;-69
2023/05/28 10:13:12;;;;;;;4.80;2.67;;;20.90;35.60;;;;;;5095308;28;20460;-70
2023/05/28 10:15:39;;;;;;;3.30;1.87;;;21.00;36.50;;;;;;5094154;28;20453;-70
2023/05/28 10:18:07;;;;;;;2.90;2.27;;;21.00;36.70;;;;;;5094240;28;20580;-69
2023/05/28 10:20:34;;;;;;;4.27;2.70;;;21.00;37.50;;;;;;5094763;28;20748;-69
2023/05/28 10:23:02;;;;;;;8.50;2.53;;;21.00;36.60;;;;;;5094490;28;20522;-69
2023/05/28 10:25:29;;;;;;;7.80;2.00;;;21.10;37.30;;;;;;5094928;28;20453;-69
2023/05/28 10:28:00;;;;;;;3.93;2.13;;;21.20;36.30;;;;;;5094870;28;20453;-69
2023/05/28 10:30:35;;;;;;;4.37;2.30;;;21.30;36.80;;;;;;5094884;28;20442;-69
2023/05/28 10:33:04;;;;;;;6.27;2.47;;;21.30;35.80;;;;;;5094512;28;20513;-69
2023/05/28 10:35:33;;;;;;;5.40;2.03;;;21.40;34.90;;;;;;5094315;28;20468;-69
2023/05/28 10:38:04;;;;;;;3.63;2.00;;;21.40;33.70;;;;;;5093771;28;20485;-69
2023/05/28 10:40:34;;;;;;;3.50;2.60;;;21.40;33.40;;;;;;5094326;28;20455;-68
2023/05/28 10:43:01;;;;;;;5.20;2.30;;;21.40;33.80;;;;;;5094857;28;20442;-69
2023/05/28 10:45:40;;;;;;;4.30;2.40;;;21.40;35.60;;;;;;5093882;28;20457;-69
2023/05/28 10:48:07;;;;;;;3.40;2.00;;;21.50;33.80;;;;;;5094277;28;20577;-69
2023/05/28 10:50:34;;;;;;;4.63;2.20;;;21.60;32.60;;;;;;5094208;28;20453;-69
2023/05/28 10:53:06;;;;;;;4.87;2.17;;;21.60;31.50;;;;;;5093966;28;20453;-69
2023/05/28 10:55:49;;;;;;;5.03;2.50;;;21.70;31.80;;;;;;5094462;28;20464;-69
2023/05/28 10:58:24;;;;;;;3.23;2.60;;;21.70;31.30;;;;;;5091980;28;20476;-68
2023/05/28 11:00:53;;;;;;;2.83;2.00;;;21.80;31.30;;;;;;5094409;28;20449;-69
2023/05/28 11:03:41;;;;;;;3.57;2.20;;;21.80;31.70;;;;;;5094344;28;20464;-69
2023/05/28 11:06:09;;;;;;;3.50;2.00;;;21.90;30.20;;;;;;5094294;28;20438;-69
2023/05/28 11:08:40;;;;;;;2.40;2.10;;;22.00;30.80;;;;;;5093747;28;20481;-69
2023/05/28 11:11:07;;;;;;;3.67;2.77;;;22.10;30.40;;;;;;5094465;28;20434;-69
2023/05/28 11:13:35;;;;;;;4.27;2.20;;;22.30;30.80;;;;;;5094033;28;20453;-68
2023/05/28 11:16:10;;;;;;;4.87;2.33;;;22.60;29.80;;;;;;5093799;28;20926;-68
2023/05/28 11:18:37;;;;;;;3.30;2.23;;;23.20;29.60;;;;;;5093797;28;20891;-69
2023/05/28 11:21:07;;;;;;;3.50;2.20;;;24.00;27.90;;;;;;5094126;28;20453;-70
2023/05/28 11:23:34;;;;;;;2.27;2.07;;;24.80;26.70;;;;;;5094450;28;20497;-69
2023/05/28 11:26:01;;;;;;;2.33;2.13;;;25.70;24.50;;;;;;5094227;28;20457;-69
2023/05/28 11:28:28;;;;;;;2.20;2.00;;;26.70;24.30;;;;;;5097315;28;20449;-68
2023/05/28 11:30:58;;;;;;;5.73;2.43;;;27.60;22.20;;;;;;5097278;28;20471;-69
2023/05/28 11:33:29;;;;;;;5.00;2.43;;;28.30;21.00;;;;;;5097316;28;20483;-68
2023/05/28 11:36:02;;;;;;;2.27;1.80;;;29.00;20.50;;;;;;5097727;28;20441;-68
2023/05/28 11:38:29;;;;;;;4.57;2.37;;;29.70;1.00;;;;;;5097289;28;20491;-69
2023/05/28 11:41:00;;;;;;;3.00;2.30;;;30.20;1.00;;;;;;5097247;28;20522;-69
2023/05/28 11:43:27;;;;;;;3.33;2.60;;;30.70;1.00;;;;;;5097569;28;20465;-68
2023/05/28 11:45:58;;;;;;;5.00;2.30;;;30.90;1.00;;;;;;5097213;28;20544;-68
2023/05/28 11:48:26;;;;;;;6.60;2.37;;;31.00;1.00;;;;;;5097061;28;20498;-68
2023/05/28 11:51:00;;;;;;;5.27;2.83;;;31.10;1.00;;;;;;5097129;28;20838;-69
2023/05/28 11:53:39;;;;;;;3.50;2.20;;;31.40;1.00;;;;;;5097035;28;20452;-69
2023/05/28 11:56:07;;;;;;;3.00;2.37;;;31.60;1.00;;;;;;5097211;28;20437;-69
2023/05/28 11:58:37;;;;;;;2.93;2.20;;;31.90;1.00;;;;;;5097014;28;20503;-69
2023/05/28 12:01:05;;;;;;;4.63;3.20;;;32.20;1.00;;;;;;5096932;28;20514;-69
2023/05/28 12:03:31;;;;;;;3.20;2.30;;;32.40;1.00;;;;;;5096754;28;20465;-69
2023/05/28 12:06:00;;;;;;;2.83;2.17;;;32.50;1.00;;;;;;5096518;28;20457;-69
2023/05/28 12:08:27;;;;;;;3.10;2.50;;;32.80;1.00;;;;;;5096508;28;20454;-69
2023/05/28 12:11:00;;;;;;;3.33;2.60;;;33.00;1.00;;;;;;5096814;28;20514;-69
2023/05/28 12:13:33;;;;;;;2.63;2.27;;;33.20;1.00;;;;;;5096824;28;20514;-69
2023/05/28 12:16:07;;;;;;;2.23;2.03;;;33.40;1.00;;;;;;5096651;28;20442;-69
2023/05/28 12:18:34;;;;;;;3.57;2.37;;;33.60;1.00;;;;;;5096462;28;20480;-69
2023/05/28 12:21:03;;;;;;;2.60;2.33;;;33.70;1.00;;;;;;5096677;28;20925;-69
2023/05/28 12:23:29;;;;;;;5.90;2.10;;;33.70;1.00;;;;;;5096460;28;20467;-69
2023/05/28 12:25:58;;;;;;;2.30;2.10;;;33.70;1.00;;;;;;5096479;28;20458;-69
2023/05/28 12:28:25;;;;;;;3.33;2.10;;;33.50;1.00;;;;;;5096457;28;20453;-69
2023/05/28 12:30:54;;;;;;;2.40;2.07;;;33.40;1.00;;;;;;5096868;28;20514;-69
2023/05/28 12:33:22;;;;;;;5.90;3.30;;;33.40;1.00;;;;;;5096358;28;20453;-69
2023/05/28 12:35:50;;;;;;;4.60;2.97;;;33.60;1.00;;;;;;5096432;28;20454;-69
2023/05/28 12:38:19;;;;;;;4.90;2.33;;;33.90;1.00;;;;;;5095342;28;20481;-69
2023/05/28 12:40:46;;;;;;;3.57;2.50;;;34.00;1.00;;;;;;5096179;28;20454;-70
2023/05/28 12:43:13;;;;;;;3.37;2.50;;;33.90;1.00;;;;;;5095751;28;20496;-70
2023/05/28 12:45:40;;;;;;;3.07;2.40;;;34.10;1.00;;;;;;5095685;28;20452;-69
2023/05/28 12:48:08;;;;;;;3.97;2.80;;;34.20;1.00;;;;;;5095955;28;20556;-69